createdAt,value
2023-01-29T00:01:23.464Z,43.00
2023-01-29T00:03:53.327Z,42.90
2023-01-29T00:06:20.457Z,42.90
2023-01-29T00:08:47.363Z,42.90
2023-01-29T00:11:14.113Z,42.90
2023-01-29T00:13:41.068Z,42.90
2023-01-29T00:16:08.117Z,42.90
2023-01-29T00:18:38.638Z,42.90
2023-01-29T00:21:18.369Z,43.00
2023-01-29T00:23:45.612Z,42.90
2023-01-29T00:26:12.846Z,43.00
2023-01-29T00:28:44.143Z,42.90
2023-01-29T00:31:19.692Z,42.90
2023-01-29T00:33:47.475Z,42.90
2023-01-29T00:36:15.412Z,42.90
2023-01-29T00:38:42.855Z,42.90
2023-01-29T00:41:33.315Z,42.90
2023-01-29T00:44:20.062Z,42.80
2023-01-29T00:46:46.874Z,42.90
2023-01-29T00:49:13.652Z,42.90
2023-01-29T00:51:40.450Z,42.90
2023-01-29T00:54:07.803Z,42.90
2023-01-29T00:56:36.310Z,42.80
2023-01-29T00:59:03.931Z,42.90
2023-01-29T01:01:49.788Z,42.90
2023-01-29T01:04:16.657Z,42.80
2023-01-29T01:06:43.373Z,42.80
2023-01-29T01:09:29.059Z,42.60
2023-01-29T01:11:55.888Z,42.60
2023-01-29T01:14:22.660Z,42.60
2023-01-29T01:16:49.552Z,42.60
2023-01-29T01:19:16.708Z,42.60
2023-01-29T01:21:45.503Z,42.60
2023-01-29T01:24:12.963Z,42.60
2023-01-29T01:26:39.918Z,42.60
2023-01-29T01:29:06.644Z,42.60
2023-01-29T01:31:33.457Z,42.60
2023-01-29T01:34:00.735Z,42.60
2023-01-29T01:36:27.433Z,42.70
2023-01-29T01:38:54.892Z,42.70
2023-01-29T01:41:22.952Z,42.70
2023-01-29T01:43:57.572Z,42.60
2023-01-29T01:46:25.481Z,42.70
2023-01-29T01:48:59.727Z,42.70
2023-01-29T01:51:29.206Z,42.60
2023-01-29T01:54:12.544Z,42.70
2023-01-29T01:56:42.782Z,42.70
2023-01-29T01:59:16.452Z,42.60
2023-01-29T02:01:50.010Z,42.60
2023-01-29T02:04:42.985Z,42.60
2023-01-29T02:07:31.485Z,42.60
2023-01-29T02:10:14.146Z,42.60
2023-01-29T02:12:41.110Z,42.50
2023-01-29T02:15:08.354Z,42.60
2023-01-29T02:17:35.279Z,42.50
2023-01-29T02:20:24.309Z,42.50
2023-01-29T02:23:23.325Z,42.50
2023-01-29T02:25:59.424Z,42.50
2023-01-29T02:28:35.142Z,42.40
2023-01-29T02:31:29.369Z,42.40
2023-01-29T02:34:26.014Z,42.40
2023-01-29T02:37:11.996Z,42.40
2023-01-29T02:39:53.596Z,42.40
2023-01-29T02:42:41.628Z,42.30
2023-01-29T02:45:12.961Z,42.40
2023-01-29T02:47:50.902Z,42.40
2023-01-29T02:50:34.612Z,42.40
2023-01-29T02:53:15.215Z,42.40
2023-01-29T02:55:47.233Z,42.40
2023-01-29T02:58:24.263Z,42.40
2023-01-29T03:00:52.449Z,42.30
2023-01-29T03:03:42.769Z,42.30
2023-01-29T03:06:20.283Z,42.30
2023-01-29T03:08:58.510Z,43.00
2023-01-29T03:11:34.064Z,42.30
2023-01-29T03:14:10.393Z,42.20
2023-01-29T03:16:53.555Z,42.30
2023-01-29T03:19:40.980Z,42.20
2023-01-29T03:22:18.395Z,42.20
2023-01-29T03:25:06.614Z,42.30
2023-01-29T03:28:11.780Z,42.30
2023-01-29T03:31:07.654Z,42.30
2023-01-29T03:33:58.518Z,42.20
2023-01-29T03:36:37.987Z,42.20
2023-01-29T03:39:09.491Z,42.20
2023-01-29T03:41:40.815Z,42.30
2023-01-29T03:44:17.534Z,42.20
2023-01-29T03:47:05.207Z,42.20
2023-01-29T03:49:56.456Z,42.10
2023-01-29T03:52:28.605Z,42.20
2023-01-29T03:55:40.585Z,42.20
2023-01-29T03:58:31.035Z,42.10
2023-01-29T04:01:02.289Z,42.10
2023-01-29T04:03:35.432Z,42.10
2023-01-29T04:06:20.106Z,42.10
2023-01-29T04:09:07.889Z,42.10
2023-01-29T04:11:37.818Z,42.10
2023-01-29T04:14:04.561Z,42.10
2023-01-29T04:16:38.017Z,42.20
2023-01-29T04:19:13.686Z,42.10
2023-01-29T04:21:43.206Z,42.10
2023-01-29T04:24:10.639Z,42.10
2023-01-29T04:27:07.573Z,42.00
2023-01-29T04:29:46.625Z,42.00
2023-01-29T04:32:13.807Z,42.00
2023-01-29T04:35:05.499Z,42.00
2023-01-29T04:37:42.534Z,42.10
2023-01-29T04:40:12.277Z,42.10
2023-01-29T04:42:49.439Z,42.10
2023-01-29T04:45:28.615Z,42.00
2023-01-29T04:48:22.786Z,42.00
2023-01-29T04:51:00.141Z,42.00
2023-01-29T04:53:29.592Z,42.00
2023-01-29T04:56:06.506Z,42.00
2023-01-29T04:58:37.867Z,41.90
2023-01-29T05:01:07.384Z,42.00
2023-01-29T05:03:34.067Z,42.00
2023-01-29T05:06:02.259Z,42.00
2023-01-29T05:08:30.191Z,42.00
2023-01-29T05:11:00.223Z,42.00
2023-01-29T05:13:29.468Z,42.00
2023-01-29T05:15:58.070Z,41.90
2023-01-29T05:18:24.897Z,41.90
2023-01-29T05:20:51.912Z,41.90
2023-01-29T05:23:21.006Z,41.80
2023-01-29T05:25:48.901Z,41.80
2023-01-29T05:28:18.405Z,41.80
2023-01-29T05:30:49.965Z,41.80
2023-01-29T05:33:28.350Z,41.80
2023-01-29T05:35:56.155Z,41.70
2023-01-29T05:38:23.263Z,41.70
2023-01-29T05:40:50.153Z,41.70
2023-01-29T05:43:19.259Z,41.70
2023-01-29T05:45:57.244Z,41.70
2023-01-29T05:48:25.005Z,41.70
2023-01-29T05:50:51.938Z,41.70
2023-01-29T05:53:18.703Z,41.60
2023-01-29T05:55:48.745Z,41.60
2023-01-29T05:58:15.586Z,41.70
2023-01-29T06:00:42.466Z,41.60
2023-01-29T06:03:09.243Z,41.60
2023-01-29T06:05:39.643Z,41.60
2023-01-29T06:08:07.197Z,41.60
2023-01-29T06:10:34.105Z,41.60
2023-01-29T06:13:00.810Z,41.60
2023-01-29T06:15:27.579Z,41.60
2023-01-29T06:17:55.093Z,41.60
2023-01-29T06:20:22.179Z,41.60
2023-01-29T06:22:48.940Z,41.60
2023-01-29T06:25:15.785Z,41.60
2023-01-29T06:27:42.524Z,41.50
2023-01-29T06:30:09.878Z,41.60
2023-01-29T06:32:36.720Z,41.60
2023-01-29T06:35:03.901Z,41.50
2023-01-29T06:37:30.639Z,41.60
2023-01-29T06:39:57.402Z,41.50
2023-01-29T06:42:27.861Z,41.60
2023-01-29T06:44:58.174Z,41.60
2023-01-29T06:47:25.302Z,41.50
2023-01-29T06:49:52.292Z,41.50
2023-01-29T06:52:19.068Z,41.50
2023-01-29T06:54:45.994Z,41.50
2023-01-29T06:57:12.713Z,41.50
2023-01-29T06:59:39.411Z,41.50
2023-01-29T07:02:06.388Z,41.50
2023-01-29T07:04:33.088Z,41.50
2023-01-29T07:07:00.115Z,41.50
2023-01-29T07:09:26.891Z,41.50
2023-01-29T07:11:53.611Z,41.50
2023-01-29T07:14:20.311Z,41.50
2023-01-29T07:16:47.159Z,41.50
2023-01-29T07:19:13.968Z,41.50
2023-01-29T07:21:40.743Z,41.50
2023-01-29T07:24:07.813Z,41.50
2023-01-29T07:26:34.660Z,41.50
2023-01-29T07:29:01.381Z,41.50
2023-01-29T07:31:28.359Z,41.50
2023-01-29T07:33:55.709Z,41.50
2023-01-29T07:36:24.039Z,41.50
2023-01-29T07:38:51.408Z,42.10
2023-01-29T07:41:18.661Z,41.40
2023-01-29T07:43:46.570Z,41.50
2023-01-29T07:46:13.322Z,41.50
2023-01-29T07:48:40.113Z,41.50
2023-01-29T07:51:06.993Z,41.50
2023-01-29T07:53:33.739Z,41.50
2023-01-29T07:56:00.476Z,41.50
2023-01-29T07:58:27.241Z,41.40
2023-01-29T08:00:54.009Z,41.20
2023-01-29T08:03:20.812Z,40.90
2023-01-29T08:05:48.272Z,40.60
2023-01-29T08:08:15.251Z,40.50
2023-01-29T08:10:42.021Z,40.70
2023-01-29T08:13:09.033Z,40.80
2023-01-29T08:15:38.022Z,41.00
2023-01-29T08:18:05.947Z,41.10
2023-01-29T08:20:32.740Z,41.20
2023-01-29T08:23:07.933Z,41.30
2023-01-29T08:25:35.747Z,41.40
2023-01-29T08:28:02.521Z,41.40
2023-01-29T08:30:31.401Z,41.50
2023-01-29T08:32:58.269Z,41.50
2023-01-29T08:35:25.432Z,41.50
2023-01-29T08:37:56.194Z,41.50
2023-01-29T08:40:23.839Z,41.50
2023-01-29T08:42:50.645Z,41.40
2023-01-29T08:45:17.455Z,41.30
2023-01-29T08:47:48.524Z,41.20
2023-01-29T08:50:16.728Z,41.20
2023-01-29T08:52:44.285Z,41.20
2023-01-29T08:55:11.499Z,41.10
2023-01-29T08:57:38.910Z,41.10
2023-01-29T09:00:06.849Z,41.10
2023-01-29T09:02:33.737Z,41.10
2023-01-29T09:05:00.551Z,41.00
2023-01-29T09:07:28.584Z,40.90
2023-01-29T09:09:55.473Z,40.90
2023-01-29T09:12:22.235Z,40.90
2023-01-29T09:14:48.995Z,40.80
2023-01-29T09:17:15.726Z,40.70
2023-01-29T09:19:42.415Z,40.80
2023-01-29T09:22:10.985Z,40.90
2023-01-29T09:24:38.673Z,41.00
2023-01-29T09:27:06.174Z,41.10
2023-01-29T09:29:35.655Z,41.30
2023-01-29T09:32:04.539Z,41.30
2023-01-29T09:34:31.274Z,41.30
2023-01-29T09:36:58.040Z,41.30
2023-01-29T09:39:24.745Z,41.30
2023-01-29T09:42:06.193Z,41.30
2023-01-29T09:44:54.553Z,41.30
2023-01-29T09:47:22.685Z,41.30
2023-01-29T09:50:05.425Z,41.30
2023-01-29T09:52:36.230Z,41.40
2023-01-29T09:55:18.827Z,41.50
2023-01-29T09:57:50.330Z,41.50
2023-01-29T10:00:23.656Z,41.50
2023-01-29T10:03:15.882Z,41.60
2023-01-29T10:05:52.669Z,41.70
2023-01-29T10:08:37.709Z,41.60
2023-01-29T10:11:35.248Z,41.70
2023-01-29T10:14:31.130Z,41.60
2023-01-29T10:17:22.016Z,41.70
2023-01-29T10:20:20.594Z,41.70
2023-01-29T10:23:14.981Z,41.70
2023-01-29T10:25:42.796Z,41.70
2023-01-29T10:28:28.819Z,41.70
2023-01-29T10:31:00.411Z,41.70
2023-01-29T10:33:49.005Z,41.70
2023-01-29T10:36:35.970Z,41.60
2023-01-29T10:39:02.695Z,41.60
2023-01-29T10:42:05.836Z,41.50
2023-01-29T10:45:07.191Z,42.10
2023-01-29T10:48:04.299Z,41.40
2023-01-29T10:50:46.311Z,41.50
2023-01-29T10:53:22.898Z,41.40
2023-01-29T10:56:14.039Z,41.40
2023-01-29T10:59:02.945Z,41.40
2023-01-29T11:01:29.767Z,42.00
2023-01-29T11:04:02.817Z,41.30
2023-01-29T11:06:34.335Z,41.30
2023-01-29T11:09:26.343Z,41.20
2023-01-29T11:12:02.537Z,41.20
2023-01-29T11:14:55.254Z,41.20
2023-01-29T11:17:23.946Z,41.10
2023-01-29T11:19:52.163Z,41.10
2023-01-29T11:22:23.332Z,41.00
2023-01-29T11:25:21.407Z,40.90
2023-01-29T11:27:53.342Z,40.70
2023-01-29T11:30:24.564Z,40.70
2023-01-29T11:33:18.262Z,40.50
2023-01-29T11:35:45.106Z,40.40
2023-01-29T11:38:21.828Z,40.40
2023-01-29T11:40:48.548Z,40.40
2023-01-29T11:43:44.362Z,40.30
2023-01-29T11:46:15.475Z,40.30
2023-01-29T11:48:45.335Z,40.30
2023-01-29T11:51:39.867Z,40.20
2023-01-29T11:54:06.683Z,40.20
2023-01-29T11:56:42.018Z,40.00
2023-01-29T11:59:37.071Z,39.90
2023-01-29T12:02:31.497Z,39.90
2023-01-29T12:05:04.811Z,39.90
2023-01-29T12:07:32.005Z,39.90
2023-01-29T12:09:59.701Z,39.70
2023-01-29T12:12:44.192Z,39.70
2023-01-29T12:15:19.921Z,39.70
2023-01-29T12:18:09.730Z,39.70
2023-01-29T12:20:42.649Z,39.70
2023-01-29T12:23:24.232Z,39.80
2023-01-29T12:26:16.038Z,39.80
2023-01-29T12:29:05.831Z,39.80
2023-01-29T12:31:33.313Z,39.70
2023-01-29T12:34:27.922Z,39.70
2023-01-29T12:37:48.879Z,39.70
2023-01-29T12:40:17.124Z,39.80
2023-01-29T12:42:48.309Z,39.90
2023-01-29T12:45:19.848Z,39.90
2023-01-29T12:47:52.815Z,39.90
2023-01-29T12:50:22.140Z,39.90
2023-01-29T12:53:05.470Z,39.80
2023-01-29T12:55:41.385Z,39.70
2023-01-29T12:58:44.108Z,39.80
2023-01-29T13:01:37.198Z,39.80
2023-01-29T13:04:07.058Z,39.70
2023-01-29T13:06:43.413Z,39.80
2023-01-29T13:09:25.397Z,39.70
2023-01-29T13:11:57.466Z,39.60
2023-01-29T13:14:28.815Z,39.50
2023-01-29T13:17:03.132Z,39.60
2023-01-29T13:19:35.149Z,39.60
2023-01-29T13:22:05.437Z,39.60
2023-01-29T13:24:37.466Z,39.50
2023-01-29T13:27:04.287Z,39.50
2023-01-29T13:29:31.587Z,39.40
2023-01-29T13:32:00.106Z,39.50
2023-01-29T13:34:33.221Z,39.40
2023-01-29T13:37:02.888Z,39.40
2023-01-29T13:39:35.036Z,39.40
2023-01-29T13:42:04.228Z,39.40
2023-01-29T13:44:34.682Z,39.30
2023-01-29T13:47:05.105Z,39.40
2023-01-29T13:49:47.058Z,39.50
2023-01-29T13:52:35.807Z,39.50
2023-01-29T13:55:08.765Z,39.50
2023-01-29T13:57:46.080Z,39.50
2023-01-29T14:00:21.702Z,39.50
2023-01-29T14:03:08.783Z,39.50
2023-01-29T14:05:39.977Z,39.40
2023-01-29T14:08:09.741Z,39.40
2023-01-29T14:10:37.902Z,39.40
2023-01-29T14:13:04.579Z,39.40
2023-01-29T14:15:34.514Z,39.40
2023-01-29T14:18:19.432Z,39.40
2023-01-29T14:20:51.856Z,39.40
2023-01-29T14:23:25.138Z,39.40
2023-01-29T14:25:53.561Z,39.40
2023-01-29T14:28:26.901Z,39.30
2023-01-29T14:30:55.010Z,39.50
2023-01-29T14:33:35.281Z,39.40
2023-01-29T14:36:10.787Z,39.30
2023-01-29T14:38:37.761Z,39.30
2023-01-29T14:41:29.531Z,39.30
2023-01-29T14:44:33.825Z,39.30
2023-01-29T14:47:00.542Z,39.30
2023-01-29T14:49:55.349Z,39.40
2023-01-29T14:52:42.430Z,39.30
2023-01-29T14:55:16.135Z,39.40
2023-01-29T14:57:43.198Z,39.40
2023-01-29T15:00:21.570Z,39.30
2023-01-29T15:02:56.451Z,39.30
2023-01-29T15:05:32.860Z,39.40
2023-01-29T15:08:14.162Z,39.30
2023-01-29T15:10:45.513Z,39.30
2023-01-29T15:13:35.589Z,39.30
2023-01-29T15:16:11.185Z,39.20
2023-01-29T15:18:40.641Z,39.30
2023-01-29T15:21:19.717Z,39.30
2023-01-29T15:23:50.074Z,39.30
2023-01-29T15:26:21.966Z,39.30
2023-01-29T15:29:03.367Z,39.30
2023-01-29T15:31:31.455Z,39.30
2023-01-29T15:34:06.420Z,39.30
2023-01-29T15:36:33.424Z,39.30
2023-01-29T15:39:24.563Z,39.30
2023-01-29T15:42:04.159Z,39.30
2023-01-29T15:44:30.888Z,39.30
2023-01-29T15:46:59.838Z,39.20
2023-01-29T15:49:36.665Z,39.20
2023-01-29T15:52:07.747Z,39.20
2023-01-29T15:54:35.252Z,39.20
2023-01-29T15:57:03.148Z,39.20
2023-01-29T15:59:36.833Z,39.20
2023-01-29T16:02:40.957Z,39.20
2023-01-29T16:05:22.993Z,39.10
2023-01-29T16:07:50.785Z,39.20
2023-01-29T16:10:28.711Z,39.20
2023-01-29T16:12:55.850Z,39.20
2023-01-29T16:15:53.900Z,39.10
2023-01-29T16:18:23.250Z,39.10
2023-01-29T16:20:54.404Z,39.20
2023-01-29T16:23:27.607Z,39.20
2023-01-29T16:25:56.855Z,39.20
2023-01-29T16:28:23.469Z,39.20
2023-01-29T16:31:02.691Z,39.20
2023-01-29T16:33:39.188Z,39.30
2023-01-29T16:36:34.131Z,39.40
2023-01-29T16:42:10.729Z,39.30
2023-01-29T16:44:39.587Z,39.30
2023-01-29T16:47:24.826Z,39.30
2023-01-29T16:50:00.783Z,39.20
2023-01-29T16:52:32.963Z,39.30
2023-01-29T16:55:21.481Z,39.20
2023-01-29T16:57:53.254Z,39.20
2023-01-29T17:00:26.139Z,39.20
2023-01-29T17:02:56.177Z,39.20
2023-01-29T17:05:27.251Z,39.20
2023-01-29T17:07:57.367Z,39.20
2023-01-29T17:10:25.587Z,39.20
2023-01-29T17:12:55.291Z,39.20
2023-01-29T17:15:47.397Z,39.20
2023-01-29T17:18:24.834Z,39.10
2023-01-29T17:20:54.839Z,39.10
2023-01-29T17:23:22.170Z,39.20
2023-01-29T17:25:49.084Z,39.20
2023-01-29T17:28:17.513Z,39.20
2023-01-29T17:30:50.621Z,39.20
2023-01-29T17:33:22.677Z,39.20
2023-01-29T17:35:49.697Z,39.20
2023-01-29T17:38:26.024Z,39.20
2023-01-29T17:41:02.482Z,39.30
2023-01-29T17:43:29.165Z,39.30
2023-01-29T17:45:55.912Z,39.30
2023-01-29T17:48:23.489Z,39.30
2023-01-29T17:50:55.766Z,39.30
2023-01-29T17:53:24.816Z,39.20
2023-01-29T17:55:53.357Z,39.90
2023-01-29T17:58:25.561Z,39.90
2023-01-29T18:00:53.300Z,39.30
2023-01-29T18:03:20.451Z,39.40
2023-01-29T18:05:48.846Z,39.40
2023-01-29T18:08:32.534Z,39.40
2023-01-29T18:10:59.906Z,39.50
2023-01-29T18:13:26.755Z,39.50
2023-01-29T18:15:53.483Z,39.40
2023-01-29T18:18:22.037Z,39.50
2023-01-29T18:20:49.108Z,39.60
2023-01-29T18:23:16.248Z,39.60
2023-01-29T18:25:46.052Z,39.60
2023-01-29T18:28:17.171Z,39.60
2023-01-29T18:30:47.028Z,39.60
2023-01-29T18:33:14.421Z,39.70
2023-01-29T18:35:41.121Z,39.70
2023-01-29T18:38:07.877Z,39.70
2023-01-29T18:40:34.664Z,39.70
2023-01-29T18:43:01.655Z,39.80
2023-01-29T18:45:28.771Z,39.80
2023-01-29T18:47:55.993Z,39.80
2023-01-29T18:50:26.368Z,39.80
2023-01-29T18:52:54.147Z,39.80
2023-01-29T18:55:21.650Z,39.90
2023-01-29T18:58:31.738Z,39.80
2023-01-29T19:00:35.007Z,39.80
2023-01-29T19:03:02.216Z,39.90
2023-01-29T19:05:28.945Z,39.90
2023-01-29T19:07:55.780Z,39.80
2023-01-29T19:10:22.645Z,39.90
2023-01-29T19:12:49.352Z,39.90
2023-01-29T19:15:20.509Z,39.90
2023-01-29T19:17:47.318Z,39.90
2023-01-29T19:20:14.032Z,39.80
2023-01-29T19:22:40.813Z,39.80
2023-01-29T19:25:08.278Z,39.80
2023-01-29T19:27:34.970Z,39.90
2023-01-29T19:30:02.156Z,39.80
2023-01-29T19:32:28.961Z,39.80
2023-01-29T19:34:55.737Z,39.80
2023-01-29T19:37:22.429Z,39.80
2023-01-29T19:39:49.224Z,39.80
2023-01-29T19:42:16.012Z,39.90
2023-01-29T19:44:42.917Z,39.90
2023-01-29T19:47:09.678Z,39.90
2023-01-29T19:49:36.429Z,39.90
2023-01-29T19:52:03.399Z,39.90
2023-01-29T19:54:30.293Z,39.90
2023-01-29T19:56:56.988Z,39.90
2023-01-29T19:59:23.846Z,39.90
2023-01-29T20:01:50.574Z,39.90
2023-01-29T20:04:17.368Z,39.90
2023-01-29T20:06:44.618Z,39.90
2023-01-29T20:09:11.496Z,40.70
2023-01-29T20:11:38.226Z,39.90
2023-01-29T20:14:04.915Z,40.00
2023-01-29T20:16:31.701Z,40.00
2023-01-29T20:19:14.070Z,40.00
2023-01-29T20:21:45.255Z,40.00
2023-01-29T20:24:13.183Z,40.00
2023-01-29T20:26:40.068Z,40.00
2023-01-29T20:29:06.873Z,40.10
2023-01-29T20:31:33.984Z,40.10
2023-01-29T20:34:00.736Z,40.10
2023-01-29T20:36:27.505Z,40.20
2023-01-29T20:38:54.222Z,40.10
2023-01-29T20:41:21.193Z,40.20
2023-01-29T20:43:50.172Z,40.20
2023-01-29T20:46:17.600Z,40.10
2023-01-29T20:48:44.337Z,40.20
2023-01-29T20:51:16.169Z,40.20
2023-01-29T20:53:45.392Z,40.20
2023-01-29T20:56:13.252Z,40.20
2023-01-29T20:58:41.062Z,40.20
2023-01-29T21:01:12.178Z,40.30
2023-01-29T21:03:39.758Z,40.20
2023-01-29T21:06:07.519Z,40.20
2023-01-29T21:08:35.302Z,40.20
2023-01-29T21:11:02.867Z,40.20
2023-01-29T21:13:29.674Z,40.30
2023-01-29T21:15:56.398Z,40.30
2023-01-29T21:18:25.694Z,40.30
2023-01-29T21:20:52.830Z,40.40
2023-01-29T21:23:19.796Z,40.40
2023-01-29T21:25:46.670Z,40.50
2023-01-29T21:28:13.433Z,40.50
2023-01-29T21:30:40.175Z,40.50
2023-01-29T21:33:06.980Z,40.50
2023-01-29T21:35:36.678Z,40.50
2023-01-29T21:38:03.873Z,40.50
2023-01-29T21:40:30.677Z,40.50
2023-01-29T21:43:12.520Z,40.50
2023-01-29T21:45:40.124Z,40.50
2023-01-29T21:48:07.119Z,40.50
2023-01-29T21:50:33.844Z,40.50
2023-01-29T21:53:01.092Z,40.50
2023-01-29T21:55:27.864Z,40.50
2023-01-29T21:57:54.581Z,40.50
2023-01-29T22:00:21.386Z,40.50
2023-01-29T22:02:50.034Z,40.50
2023-01-29T22:05:19.792Z,40.50
2023-01-29T22:07:48.192Z,40.50
2023-01-29T22:10:19.162Z,40.50
2023-01-29T22:12:46.956Z,40.50
2023-01-29T22:15:14.272Z,40.50
2023-01-29T22:17:41.535Z,40.50
2023-01-29T22:20:13.127Z,40.50
2023-01-29T22:22:40.014Z,40.60
2023-01-29T22:25:07.039Z,40.50
2023-01-29T22:27:34.012Z,40.50
2023-01-29T22:30:00.771Z,40.50
2023-01-29T22:32:27.571Z,40.50
2023-01-29T22:34:54.412Z,40.60
2023-01-29T22:37:21.175Z,40.50
2023-01-29T22:39:47.899Z,40.60
2023-01-29T22:42:14.577Z,40.60
2023-01-29T22:44:41.373Z,40.60
2023-01-29T22:47:08.060Z,40.60
2023-01-29T22:49:34.782Z,40.60
2023-01-29T22:52:10.522Z,40.60
2023-01-29T22:54:38.952Z,40.60
2023-01-29T22:57:05.998Z,40.60
2023-01-29T22:59:33.136Z,40.60
2023-01-29T23:02:00.020Z,40.60
2023-01-29T23:04:27.087Z,40.60
2023-01-29T23:06:54.034Z,40.60
2023-01-29T23:09:20.799Z,40.60
2023-01-29T23:11:47.507Z,40.60
2023-01-29T23:14:14.233Z,41.30
2023-01-29T23:16:41.038Z,40.60
2023-01-29T23:19:07.907Z,40.60
2023-01-29T23:21:34.622Z,40.60
2023-01-29T23:24:01.525Z,40.60
2023-01-29T23:26:48.328Z,40.60
2023-01-29T23:29:15.115Z,40.70
2023-01-29T23:31:41.976Z,40.60
2023-01-29T23:34:08.903Z,40.60
2023-01-29T23:36:35.615Z,40.60
2023-01-29T23:39:02.518Z,40.70
2023-01-29T23:41:29.218Z,40.70
2023-01-29T23:43:56.024Z,40.70
2023-01-29T23:46:22.996Z,40.70
2023-01-29T23:48:49.728Z,40.70
2023-01-29T23:51:16.635Z,40.60
2023-01-29T23:53:43.352Z,40.70
2023-01-29T23:56:11.027Z,40.70
2023-01-29T23:58:38.012Z,40.70
